Time;durP1;ratioP1;P1;durP2;ratioP2;P2;SDS_P1;SDS_P2;PMS_P1;PMS_P2;Temp;Humidity;BMP_temperature;BMP_pressure;BME280_temperature;BME280_humidity;BME280_pressure;Samples;Min_cycle;Max_cycle;Signal;HPM_P1;HPM_P2
2021/08/09 00:00:35;;;;;;;11.75;5.50;;;12.80;99.90;;;11.69;97.30;101168.47;4994080;28;20577;-78
2021/08/09 00:03:03;;;;;;;11.18;5.00;;;12.90;99.90;;;11.73;96.52;101163.03;5032492;28;20025;-78
2021/08/09 00:05:29;;;;;;;12.07;5.35;;;12.90;99.90;;;11.70;96.14;101162.28;5017631;28;20183;-77
2021/08/09 00:07:57;;;;;;;15.90;5.82;;;12.90;99.90;;;11.67;96.44;101162.41;4983423;28;20059;-78
2021/08/09 00:10:24;;;;;;;12.75;5.40;;;12.90;99.90;;;11.63;95.94;101167.88;5007344;28;20030;-78
2021/08/09 00:12:51;;;;;;;15.93;6.15;;;12.80;99.90;;;11.60;96.64;101166.25;4975702;28;20018;-78
2021/08/09 00:15:17;;;;;;;14.35;5.00;;;12.80;99.90;;;11.57;97.14;101161.06;4992019;28;20142;-77
2021/08/09 00:17:43;;;;;;;9.07;5.70;;;12.80;99.90;;;11.55;97.26;101162.06;4990199;28;20130;-78
2021/08/09 00:20:11;;;;;;;12.20;5.40;;;12.80;99.90;;;11.51;97.99;101142.88;5005826;28;20049;-78
2021/08/09 00:22:38;;;;;;;10.48;5.18;;;12.70;99.90;;;11.49;97.86;101144.75;5010882;28;20021;-77
2021/08/09 00:25:06;;;;;;;8.50;5.07;;;12.70;99.90;;;11.49;98.42;101171.97;4984292;28;20148;-78
2021/08/09 00:27:33;;;;;;;8.40;4.47;;;12.70;99.90;;;11.45;97.80;101161.63;4980285;28;20033;-78
2021/08/09 00:29:59;;;;;;;12.15;5.35;;;12.70;99.90;;;11.44;98.73;101166.03;5016894;28;20055;-77
2021/08/09 00:32:26;;;;;;;25.33;5.70;;;12.50;99.90;;;11.46;98.49;101169.44;4997860;28;20447;-78
2021/08/09 00:34:52;;;;;;;14.75;5.07;;;12.70;99.90;;;11.46;98.65;101165.97;4998584;28;20029;-78
2021/08/09 00:37:19;;;;;;;14.70;5.55;;;;;;;11.43;98.19;101160.84;5005981;28;20033;-78
2021/08/09 00:39:45;;;;;;;12.77;5.38;;;12.70;99.90;;;11.40;98.59;101168.88;5002453;28;20057;-78
2021/08/09 00:42:11;;;;;;;9.13;4.93;;;12.60;99.90;;;11.37;98.85;101163.75;5050320;28;20062;-78
2021/08/09 00:44:37;;;;;;;13.90;5.32;;;12.60;99.90;;;11.34;99.13;101175.28;4998357;28;20024;-77
2021/08/09 00:47:04;;;;;;;14.20;5.68;;;12.60;99.90;;;11.36;98.94;101177.81;5000001;28;21070;-78
2021/08/09 00:49:30;;;;;;;10.45;5.00;;;12.60;99.90;;;11.31;98.67;101180.66;4973302;28;20055;-78
2021/08/09 00:51:57;;;;;;;17.30;5.40;;;12.60;99.90;;;11.28;98.93;101170.25;5014883;28;20041;-78
2021/08/09 00:54:24;;;;;;;12.55;4.70;;;12.50;99.90;;;11.29;98.78;101171.97;4993955;28;20054;-78
2021/08/09 00:56:50;;;;;;;10.77;4.97;;;12.60;99.90;;;11.42;99.04;101217.13;4969380;28;20155;-78
2021/08/09 00:59:17;;;;;;;8.73;4.85;;;12.70;99.90;;;11.46;99.24;101243.28;4973816;28;20032;-78
2021/08/09 01:01:43;;;;;;;11.02;5.00;;;12.70;99.90;;;11.48;98.23;101259.06;5004685;28;20154;-78
2021/08/09 01:04:12;;;;;;;10.10;4.88;;;12.70;99.90;;;11.44;98.07;101246.91;5015847;28;20093;-78
2021/08/09 01:06:39;;;;;;;14.57;5.45;;;12.70;99.90;;;11.39;97.48;101241.00;5007537;28;20050;-77
2021/08/09 01:09:41;;;;;;;12.77;4.72;;;12.60;99.90;;;11.39;97.39;101236.56;4989669;28;20263;-77
2021/08/09 01:12:45;;;;;;;9.82;4.30;;;12.60;99.90;;;11.38;97.41;101226.06;5028570;28;20062;-77
2021/08/09 01:15:26;;;;;;;15.98;4.30;;;12.60;99.90;;;11.36;97.46;101215.63;4991064;28;20511;-77
2021/08/09 01:17:55;;;;;;;14.18;4.30;;;12.60;99.90;;;11.37;97.20;101221.75;4997631;28;20059;-78
2021/08/09 01:20:36;;;;;;;8.95;3.92;;;12.60;99.90;;;11.34;97.23;101254.38;5000121;28;20056;-77
2021/08/09 01:23:29;;;;;;;9.80;3.80;;;12.60;99.90;;;11.38;97.39;101229.59;5011716;28;20078;-77
2021/08/09 01:26:16;;;;;;;7.00;4.00;;;12.60;99.90;;;11.38;97.38;101224.31;5001735;28;20461;-77
2021/08/09 01:28:46;;;;;;;11.63;4.20;;;12.60;99.90;;;11.34;97.48;101230.66;5021667;28;20063;-78
2021/08/09 01:31:15;;;;;;;10.30;4.05;;;12.60;99.90;;;11.29;97.70;101222.06;4986896;28;20059;-77
2021/08/09 01:33:43;;;;;;;14.57;4.30;;;12.60;99.90;;;11.26;97.40;101223.03;4987953;28;20078;-77
2021/08/09 01:36:12;;;;;;;14.00;4.50;;;12.50;99.90;;;11.33;98.05;101289.56;4981848;28;20037;-77
2021/08/09 01:38:40;;;;;;;8.07;3.58;;;12.60;99.90;;;11.44;97.78;101331.31;4977950;28;20049;-77
2021/08/09 01:41:07;;;;;;;7.90;3.83;;;12.70;99.90;;;11.48;97.65;101288.91;4950830;28;20084;-78
2021/08/09 01:43:35;;;;;;;7.30;3.55;;;12.70;99.90;;;11.43;96.92;101348.91;4998323;28;20086;-77
2021/08/09 01:46:02;;;;;;;8.15;3.75;;;12.70;99.90;;;11.37;97.43;101337.75;4996297;28;20045;-78
2021/08/09 01:48:31;;;;;;;5.78;3.53;;;12.60;99.90;;;11.33;97.14;101331.72;4972723;28;20151;-78
2021/08/09 01:50:58;;;;;;;7.20;3.80;;;12.60;99.90;;;11.31;98.10;101330.09;4997584;28;20121;-77
2021/08/09 01:53:25;;;;;;;7.05;3.60;;;12.60;99.90;;;11.35;98.13;101345.72;4962138;28;20611;-78
2021/08/09 01:55:55;;;;;;;8.95;3.60;;;12.60;99.90;;;11.39;98.40;101320.94;4971043;28;20114;-77
2021/08/09 01:58:24;;;;;;;11.00;4.35;;;12.60;99.90;;;11.41;98.07;101331.44;4961754;28;20115;-77
2021/08/09 02:00:50;;;;;;;8.82;3.63;;;12.60;99.90;;;11.40;97.55;101325.31;5002202;28;20045;-77
2021/08/09 02:03:16;;;;;;;11.02;3.63;;;12.60;99.90;;;11.37;97.65;101322.78;4974863;28;20052;-77
2021/08/09 02:05:42;;;;;;;12.20;4.13;;;12.60;99.90;;;11.36;98.15;101314.94;4993232;28;20128;-77
2021/08/09 02:08:14;;;;;;;8.18;3.40;;;12.60;99.90;;;11.32;97.98;101321.25;5002994;28;20033;-77
2021/08/09 02:10:40;;;;;;;6.07;3.20;;;12.50;99.90;;;11.36;98.28;101321.09;4996714;28;20033;-77
2021/08/09 02:13:30;;;;;;;6.95;3.30;;;12.60;99.90;;;11.33;98.46;101313.28;5006128;28;20025;-77
2021/08/09 02:16:10;;;;;;;11.70;3.55;;;12.50;99.90;;;11.30;98.46;101347.69;4985090;28;20028;-77
2021/08/09 02:19:25;;;;;;;5.72;3.17;;;12.60;99.90;;;11.33;98.33;101410.81;5008760;28;20036;-78
2021/08/09 02:22:23;;;;;;;8.65;3.58;;;12.50;99.90;;;11.33;98.44;101467.97;5011722;28;20116;-77
2021/08/09 02:25:01;;;;;;;6.53;3.30;;;12.60;99.90;;;11.29;98.54;101396.03;5022472;28;20029;-77
2021/08/09 02:27:40;;;;;;;7.75;3.60;;;12.50;99.90;;;11.25;98.66;101440.16;5008933;28;20028;-77
2021/08/09 02:30:08;;;;;;;7.55;3.45;;;12.50;99.90;;;11.33;98.25;101396.78;4984567;28;20089;-77
2021/08/09 02:32:37;;;;;;;5.07;3.20;;;12.50;99.90;;;11.21;98.65;101395.47;4992983;28;20024;-78
2021/08/09 02:35:09;;;;;;;10.25;3.83;;;12.40;99.90;;;11.18;98.69;101379.78;5015113;28;20539;-77
2021/08/09 02:37:36;;;;;;;14.32;3.63;;;12.40;99.90;;;11.13;99.28;101387.88;4991830;28;20203;-77
2021/08/09 02:40:04;;;;;;;10.43;3.30;;;12.30;99.90;;;11.07;99.05;101377.56;4983570;28;20045;-78
2021/08/09 02:42:30;;;;;;;9.73;3.67;;;12.30;99.90;;;11.02;99.04;101398.84;5049770;28;20474;-77
2021/08/09 02:45:07;;;;;;;7.38;3.53;;;12.30;99.90;;;11.00;99.15;101386.63;4976574;28;20070;-78
2021/08/09 02:47:38;;;;;;;7.78;3.70;;;12.20;99.90;;;10.96;99.07;101400.84;4985703;28;20071;-78
2021/08/09 02:50:08;;;;;;;9.10;3.70;;;12.20;99.90;;;10.91;99.54;101452.81;4987198;28;20068;-77
2021/08/09 02:52:35;;;;;;;8.43;3.50;;;12.10;99.90;;;10.93;99.74;101458.91;4983302;28;20067;-77
2021/08/09 02:55:02;;;;;;;6.95;3.53;;;12.10;99.90;;;10.86;99.17;101501.31;5011086;28;20021;-77
2021/08/09 02:57:37;;;;;;;9.80;3.38;;;12.10;99.90;;;10.84;99.58;101524.22;5025953;28;20581;-78
2021/08/09 03:00:05;;;;;;;5.25;3.03;;;12.10;99.90;;;10.85;99.62;101532.97;4985474;28;20094;-77
2021/08/09 03:02:42;;;;;;;14.05;3.42;;;12.00;99.90;;;10.76;99.52;101546.47;4991625;28;20112;-78
2021/08/09 03:05:11;;;;;;;7.20;3.30;;;12.00;99.90;;;10.73;99.52;101584.28;5023903;28;20042;-77
2021/08/09 03:07:42;;;;;;;8.95;4.07;;;12.00;99.90;;;10.73;99.61;101610.63;5016122;28;20032;-78
2021/08/09 03:10:11;;;;;;;6.90;3.55;;;11.90;99.90;;;10.72;100.00;101668.66;5003089;28;20021;-77
2021/08/09 03:12:38;;;;;;;10.35;3.97;;;11.90;99.90;;;10.64;100.00;101651.28;5032278;28;20064;-77
2021/08/09 03:15:06;;;;;;;8.02;3.25;;;11.90;99.90;;;10.65;100.00;101646.91;4972539;28;20020;-77
2021/08/09 03:17:34;;;;;;;7.25;3.22;;;11.90;99.90;;;10.65;100.00;101718.03;4979541;28;20075;-78
2021/08/09 03:20:00;;;;;;;9.65;3.72;;;11.90;99.90;;;10.63;100.00;101704.91;5041406;28;20530;-78
2021/08/09 03:22:27;;;;;;;10.25;3.40;;;11.90;99.90;;;10.60;100.00;101741.84;5009220;28;20495;-78
2021/08/09 03:24:52;;;;;;;12.32;3.40;;;11.90;99.90;;;10.61;100.00;101756.75;4998566;28;20445;-77
2021/08/09 03:27:18;;;;;;;6.63;3.13;;;11.90;99.90;;;10.61;100.00;101769.06;4996834;28;20104;-78
2021/08/09 03:29:48;;;;;;;8.45;3.60;;;11.90;99.90;;;10.64;100.00;101811.09;5008884;28;20029;-77
2021/08/09 03:32:13;;;;;;;7.15;3.45;;;11.90;99.90;;;10.64;100.00;101837.44;5010008;28;20033;-77
2021/08/09 03:34:39;;;;;;;7.78;3.15;;;11.90;99.90;;;10.64;100.00;101811.09;4973030;28;20108;-77
2021/08/09 03:37:05;;;;;;;8.98;3.50;;;11.90;99.90;;;10.61;100.00;101821.75;4980925;28;20059;-77
2021/08/09 03:39:31;;;;;;;7.45;3.38;;;11.90;99.90;;;10.62;100.00;101844.53;4995889;28;20070;-77
2021/08/09 03:41:57;;;;;;;6.05;3.30;;;11.90;99.90;;;10.65;100.00;101876.06;4987712;28;20059;-78
2021/08/09 03:44:23;;;;;;;8.15;2.90;;;11.90;99.90;;;10.67;100.00;101887.44;5010030;28;20108;-77
2021/08/09 03:46:57;;;;;;;8.50;3.17;;;11.90;99.90;;;10.69;100.00;102009.41;4989535;28;20066;-77
2021/08/09 03:49:23;;;;;;;8.38;3.72;;;12.00;99.90;;;10.68;100.00;101834.69;5004518;28;20065;-77
2021/08/09 03:51:49;;;;;;;6.63;3.22;;;12.00;99.90;;;10.71;100.00;101904.00;5008573;28;20063;-78
2021/08/09 03:54:15;;;;;;;7.05;2.47;;;12.00;99.90;;;10.72;100.00;101846.00;5004480;28;20069;-78
2021/08/09 03:56:41;;;;;;;7.32;2.95;;;12.00;99.90;;;10.67;100.00;101798.72;5009743;28;20490;-77
2021/08/09 03:59:09;;;;;;;9.02;2.70;;;11.90;99.90;;;10.68;100.00;101826.78;5048015;28;20075;-77
2021/08/09 04:01:38;;;;;;;10.60;3.10;;;12.00;99.90;;;10.76;100.00;101805.47;5006632;28;20121;-77
2021/08/09 04:04:06;;;;;;;7.97;2.90;;;12.80;99.90;;;10.83;100.00;101806.16;4997848;28;20758;-77
2021/08/09 04:06:35;;;;;;;8.80;3.35;;;12.00;99.90;;;10.79;100.00;101794.84;4992367;28;20033;-77
2021/08/09 04:09:02;;;;;;;7.88;3.65;;;12.10;99.90;;;10.83;100.00;101796.47;4955604;28;20130;-77
2021/08/09 04:11:28;;;;;;;5.35;3.05;;;12.10;99.90;;;10.87;100.00;101787.56;4984519;28;20030;-77
2021/08/09 04:13:57;;;;;;;8.90;3.13;;;12.10;99.90;;;10.85;100.00;101844.72;4961104;28;20067;-77
2021/08/09 04:16:23;;;;;;;5.13;3.08;;;12.10;99.90;;;10.88;100.00;101842.00;4978962;28;20589;-78
2021/08/09 04:18:54;;;;;;;9.02;4.15;;;12.20;99.90;;;10.96;100.00;101888.34;4973577;28;20060;-78
2021/08/09 04:21:21;;;;;;;4.60;2.72;;;12.30;99.90;;;11.08;100.00;101856.34;4979788;28;20037;-77
2021/08/09 04:23:49;;;;;;;5.13;2.75;;;12.30;99.90;;;11.18;99.47;101839.31;5000180;28;21323;-77
2021/08/09 04:26:16;;;;;;;3.78;2.50;;;12.60;99.90;;;11.73;98.39;101899.13;4989064;28;20063;-78
2021/08/09 04:28:43;;;;;;;6.53;2.80;;;13.30;99.90;;;12.56;94.98;101944.72;4987232;28;20019;-78
2021/08/09 04:31:13;;;;;;;2.28;1.77;;;14.20;99.90;;;13.47;89.42;101986.34;4994306;28;20025;-78
2021/08/09 04:33:45;;;;;;;5.40;1.98;;;15.00;99.90;;;14.07;85.03;102007.81;4995801;28;20017;-78
2021/08/09 04:36:12;;;;;;;9.85;2.05;;;15.60;99.90;;;14.75;82.05;102035.00;4997355;28;20213;-78
2021/08/09 04:38:41;;;;;;;3.45;1.50;;;16.40;99.90;;;15.51;78.32;102059.06;4996535;28;20033;-78
2021/08/09 04:41:10;;;;;;;3.38;1.40;;;17.10;99.90;;;16.18;75.36;102082.44;4983325;28;20052;-78
2021/08/09 04:43:38;;;;;;;2.17;1.27;;;17.60;99.90;;;16.65;72.74;102107.63;4999843;28;20404;-78
2021/08/09 04:46:11;;;;;;;4.15;1.33;;;18.20;99.90;;;17.12;71.24;102117.63;4988659;28;20056;-78
2021/08/09 04:48:37;;;;;;;1.80;1.10;;;18.20;99.90;;;17.05;70.97;102086.13;4971803;28;20090;-78
2021/08/09 04:51:03;;;;;;;3.90;1.20;;;18.00;99.90;;;16.72;71.92;102031.03;4969738;28;20040;-78
2021/08/09 04:53:30;;;;;;;5.00;1.30;;;17.80;99.90;;;16.85;72.19;102033.97;5002462;28;20036;-78
2021/08/09 04:55:56;;;;;;;4.90;1.80;;;18.10;99.90;;;17.29;70.45;102074.16;4990814;28;20376;-78
2021/08/09 04:58:24;;;;;;;2.60;1.05;;;18.60;99.90;;;17.81;68.71;102107.75;4986130;28;20096;-78
2021/08/09 05:00:51;;;;;;;9.50;1.60;;;18.60;99.90;;;17.41;69.11;102051.38;4982878;28;20052;-78
2021/08/09 05:03:17;;;;;;;6.10;1.40;;;18.50;99.90;;;17.70;68.58;102071.06;4999007;28;20029;-78
2021/08/09 05:05:45;;;;;;;3.28;1.17;;;19.10;99.90;;;18.26;66.46;102089.31;4995495;28;20033;-78
2021/08/09 05:08:11;;;;;;;3.35;1.40;;;19.20;99.90;;;18.36;65.73;102074.50;4995542;28;20060;-78
2021/08/09 05:10:42;;;;;;;3.58;1.30;;;19.20;99.90;;;18.27;65.67;102043.03;4956907;28;20041;-78
2021/08/09 05:13:09;;;;;;;6.03;1.33;;;19.40;99.90;;;18.56;64.97;102063.50;4993018;28;20056;-78
2021/08/09 05:15:37;;;;;;;3.45;1.20;;;19.70;99.90;;;19.33;62.73;102123.00;4977954;28;20029;-78
2021/08/09 05:18:03;;;;;;;3.78;1.15;;;20.00;99.90;;;19.47;61.93;102106.94;5006973;28;20033;-78
2021/08/09 05:20:30;;;;;;;4.00;1.33;;;20.00;99.90;;;18.97;61.96;102017.50;4987687;28;20178;-78
2021/08/09 05:22:56;;;;;;;4.47;1.60;;;19.60;99.90;;;18.68;64.01;101992.53;4980687;28;20509;-78
2021/08/09 05:25:23;;;;;;;3.88;1.50;;;19.30;99.90;;;18.82;63.75;102024.63;4990635;28;20674;-78
2021/08/09 05:27:50;;;;;;;4.00;1.35;;;19.30;99.90;;;18.54;64.28;101974.72;5017039;28;20040;-78
2021/08/09 05:30:16;;;;;;;3.17;1.17;;;19.40;99.90;;;19.30;62.02;102051.06;5025818;28;20056;-78
2021/08/09 05:32:42;;;;;;;2.58;1.20;;;19.90;99.90;;;19.35;61.07;102022.28;4985776;28;20040;-77
2021/08/09 05:35:09;;;;;;;1.83;1.10;;;19.70;99.90;;;18.94;62.02;101961.66;4979285;28;20033;-78
2021/08/09 05:37:38;;;;;;;2.28;1.55;;;20.00;99.90;;;19.62;59.67;102051.69;4993645;28;20516;-78
2021/08/09 05:40:07;;;;;;;2.58;1.10;;;20.60;99.90;;;19.89;58.71;101989.41;4995088;28;20152;-78
2021/08/09 05:42:33;;;;;;;8.60;1.35;;;21.20;99.90;;;20.92;56.04;102064.59;4988126;28;20037;-78
2021/08/09 05:44:59;;;;;;;3.83;1.40;;;20.80;99.90;;;20.03;57.98;101959.13;5039621;28;20037;-78
2021/08/09 05:47:28;;;;;;;5.43;1.50;;;20.60;99.90;;;20.28;58.29;102001.13;4989196;28;20091;-78
2021/08/09 05:49:56;;;;;;;2.95;1.25;;;20.70;99.90;;;20.38;57.33;101964.72;4965489;28;23173;-78
2021/08/09 05:52:26;;;;;;;4.18;1.30;;;21.10;99.90;;;20.84;55.92;102100.78;4987563;28;20029;-78
2021/08/09 05:54:53;;;;;;;7.47;1.50;;;21.80;99.90;;;21.60;53.89;102063.41;5002609;28;20080;-78
2021/08/09 05:57:20;;;;;;;5.63;1.48;;;21.60;99.90;;;21.08;54.98;101966.16;4985494;28;20036;-78
2021/08/09 05:59:46;;;;;;;5.05;1.48;;;22.00;99.90;;;21.68;52.88;101988.63;4998840;28;20105;-78
2021/08/09 06:02:13;;;;;;;10.05;1.52;;;22.00;99.90;;;21.54;53.95;101988.81;5005449;28;20037;-77
2021/08/09 06:04:41;;;;;;;4.72;1.25;;;21.90;99.90;;;21.45;53.58;101974.25;5026138;28;20064;-78
2021/08/09 06:07:14;;;;;;;5.75;1.63;;;21.70;99.90;;;21.54;53.69;101970.91;5031761;28;20029;-77
2021/08/09 06:09:42;;;;;;;5.38;1.42;;;21.90;99.90;;;21.63;52.63;102029.16;5032406;28;20025;-77
2021/08/09 06:12:10;;;;;;;7.15;1.45;;;22.20;99.90;;;22.13;51.40;102107.72;5017223;28;20021;-77
2021/08/09 06:14:38;;;;;;;3.63;1.30;;;22.80;99.90;;;22.65;50.52;102156.66;5008892;28;20053;-75
2021/08/09 06:17:08;;;;;;;2.42;1.17;;;22.90;99.90;;;22.75;49.46;102166.75;5013211;28;20027;-75
2021/08/09 06:19:35;;;;;;;6.60;1.33;;;22.70;99.90;;;22.84;49.94;102501.72;5007898;28;20530;-76
2021/08/09 06:22:02;;;;;;;4.15;1.30;;;23.10;99.90;;;22.88;49.70;102207.81;5031414;28;20051;-78
2021/08/09 06:24:28;;;;;;;2.72;1.15;;;22.90;99.90;;;22.34;50.70;102147.38;5013198;28;20028;-77
2021/08/09 06:26:55;;;;;;;6.53;1.58;;;23.30;99.90;;;23.89;48.02;102552.38;5030550;28;20465;-76
2021/08/09 06:29:21;;;;;;;7.28;0.90;;;23.70;99.90;;;23.43;47.64;102190.13;5033447;28;20465;-76
2021/08/09 06:31:47;;;;;;;3.47;1.10;;;23.00;99.90;;;22.61;49.55;102068.44;5035197;28;20036;-76
2021/08/09 06:34:13;;;;;;;4.47;1.27;;;22.40;99.90;;;21.38;52.70;101940.78;4997868;28;20037;-76
2021/08/09 06:36:39;;;;;;;2.55;1.13;;;21.60;99.90;;;21.42;53.47;101969.94;5016102;28;20443;-77
2021/08/09 06:39:06;;;;;;;3.42;1.10;;;22.20;99.90;;;22.24;50.69;101990.75;5016778;28;20068;-77
2021/08/09 06:41:32;;;;;;;4.10;1.10;;;22.70;99.90;;;22.83;49.17;101992.44;4991888;28;20051;-77
2021/08/09 06:44:02;;;;;;;3.50;1.23;;;22.50;99.90;;;22.69;49.92;101991.69;5025600;28;20496;-76
2021/08/09 06:46:28;;;;;;;3.53;1.30;;;22.70;99.90;;;22.98;49.61;101998.44;5047345;28;20045;-77
2021/08/09 06:48:55;;;;;;;2.67;1.10;;;23.00;99.90;;;23.13;48.73;102006.19;5006938;28;20032;-76
2021/08/09 06:51:21;;;;;;;8.90;1.52;;;23.00;99.90;;;23.13;47.83;101976.63;4976849;28;20021;-78
2021/08/09 06:53:47;;;;;;;3.65;1.38;;;22.60;99.90;;;22.92;48.89;104148.88;5027114;28;20368;-77
2021/08/09 06:56:15;;;;;;;3.38;1.27;;;22.60;99.90;;;22.64;49.28;102442.22;4992747;28;20112;-78
2021/08/09 06:58:43;;;;;;;2.85;1.30;;;22.60;99.90;;;22.73;48.98;102274.25;5001745;28;20021;-78
2021/08/09 07:01:09;;;;;;;5.97;1.63;;;22.60;99.90;;;22.99;48.44;102299.16;4970792;28;20102;-77
2021/08/09 07:03:35;;;;;;;5.03;1.00;;;22.90;99.90;;;23.29;47.63;102274.53;5001983;28;20524;-78
2021/08/09 07:06:01;;;;;;;5.15;1.42;;;23.00;99.90;;;22.99;47.88;102095.03;5001879;28;20025;-77
2021/08/09 07:08:27;;;;;;;6.15;1.35;;;23.10;99.90;;;23.63;46.87;102116.00;4998105;28;20485;-78
2021/08/09 07:11:01;;;;;;;6.78;1.23;;;23.30;99.90;;;23.53;47.00;102054.03;5005285;28;20491;-77
2021/08/09 07:13:27;;;;;;;5.53;1.58;;;22.80;99.90;;;22.89;48.90;102030.44;4987585;28;20026;-78
2021/08/09 07:15:53;;;;;;;4.97;1.50;;;22.80;99.90;;;22.85;49.11;101991.38;5011670;28;20564;-78
2021/08/09 07:18:19;;;;;;;5.00;1.35;;;22.80;99.90;;;23.45;48.01;101943.59;5000877;28;20504;-79
2021/08/09 07:20:44;;;;;;;3.55;1.30;;;23.20;99.90;;;23.95;46.94;101992.38;5010637;28;20040;-78
2021/08/09 07:23:20;;;;;;;8.73;1.42;;;23.80;99.90;;;24.83;45.30;102032.53;5002543;28;20033;-78
2021/08/09 07:25:46;;;;;;;6.32;1.50;;;24.70;99.90;;;25.68;42.94;102047.53;5010385;28;20480;-78
2021/08/09 07:28:12;;;;;;;5.78;1.13;;;25.00;99.50;;;25.08;43.14;101966.59;4995569;28;20058;-78
2021/08/09 07:30:43;;;;;;;11.98;1.92;;;24.30;99.90;;;24.49;44.91;101928.63;4975171;28;20100;-78
2021/08/09 07:33:09;;;;;;;3.95;1.10;;;24.10;99.90;;;24.89;44.79;101943.97;4982453;28;20029;-78
2021/08/09 07:35:35;;;;;;;6.75;1.30;;;23.80;99.90;;;23.92;46.27;101858.13;4982554;28;20064;-78
2021/08/09 07:38:01;;;;;;;4.93;1.05;;;23.70;99.90;;;24.23;45.73;101870.75;5001594;28;20040;-78
2021/08/09 07:40:27;;;;;;;7.00;1.50;;;24.10;99.90;;;24.94;44.49;101939.00;4984924;28;20052;-78
2021/08/09 07:42:56;;;;;;;4.80;1.38;;;24.10;99.90;;;24.59;44.79;101874.81;5018316;28;20472;-78
2021/08/09 07:45:23;;;;;;;9.20;1.67;;;24.10;99.90;;;24.25;45.77;101850.81;4996452;28;20040;-77
2021/08/09 07:47:52;;;;;;;4.72;1.42;;;23.60;99.90;;;23.99;46.64;101844.16;5000591;28;20021;-78
2021/08/09 07:50:20;;;;;;;4.55;1.63;;;23.90;99.90;;;24.58;45.31;101886.59;4983608;28;20036;-78
2021/08/09 07:52:47;;;;;;;7.93;1.40;;;24.30;99.90;;;24.94;43.75;101886.97;5033251;28;20056;-79
2021/08/09 07:55:13;;;;;;;9.70;2.35;;;23.70;99.90;;;24.02;46.01;101798.16;5004619;28;20412;-78
2021/08/09 07:57:39;;;;;;;7.05;1.60;;;24.20;99.90;;;24.94;44.19;101878.91;4982810;28;20477;-78
2021/08/09 08:00:06;;;;;;;5.13;1.38;;;24.20;99.90;;;24.70;44.41;101846.94;4992754;28;20057;-78
2021/08/09 08:02:33;;;;;;;6.10;1.55;;;23.90;99.90;;;24.02;45.96;104599.53;4995121;28;20056;-78
2021/08/09 08:04:59;;;;;;;9.68;1.95;;;23.60;99.90;;;23.87;46.82;102355.25;5007456;28;20032;-78
2021/08/09 08:07:28;;;;;;;9.15;1.45;;;23.70;99.90;;;24.10;45.77;102204.59;5005114;28;20036;-78
2021/08/09 08:10:15;;;;;;;5.25;1.42;;;24.00;99.90;;;24.88;44.86;102297.88;4963602;28;20540;-78
2021/08/09 08:12:42;;;;;;;6.97;1.55;;;24.40;99.60;;;24.86;43.48;102269.31;5016979;28;20051;-78
2021/08/09 08:15:08;;;;;;;9.07;1.50;;;23.80;99.90;;;24.09;46.02;102181.38;4998020;28;20371;-78
2021/08/09 08:17:50;;;;;;;7.82;1.70;;;24.00;99.90;;;24.22;45.92;102147.09;4954721;28;20123;-77
2021/08/09 08:20:34;;;;;;;8.93;1.50;;;24.20;99.90;;;24.51;44.98;102063.09;4960850;28;20041;-78
2021/08/09 08:23:04;;;;;;;5.63;1.50;;;24.20;99.90;;;24.02;45.99;101967.66;4975505;28;20596;-78
2021/08/09 08:25:32;;;;;;;8.98;1.52;;;23.90;99.90;;;24.07;46.16;102000.38;4991459;28;20107;-78
2021/08/09 08:28:25;;;;;;;6.43;1.65;;;24.20;99.90;;;24.18;45.73;101908.84;4985976;28;20068;-78
2021/08/09 08:30:53;;;;;;;7.35;1.80;;;24.20;99.90;;;24.01;45.90;101880.69;4985956;28;20040;-79
2021/08/09 08:33:45;;;;;;;7.20;1.38;;;24.00;99.70;;;24.00;46.11;101886.22;4981689;28;20052;-78
2021/08/09 08:36:54;;;;;;;6.55;1.48;;;24.70;99.90;;;25.08;43.78;101939.66;4976074;28;20037;-78
2021/08/09 08:39:33;;;;;;;6.53;1.70;;;25.00;98.50;;;24.46;44.94;101863.38;5004172;28;20051;-78
2021/08/09 08:42:23;;;;;;;6.78;1.48;;;24.00;98.30;;;23.27;45.28;101802.69;5025330;28;20111;-79
2021/08/09 08:44:53;;;;;;;5.28;1.30;;;23.40;99.30;;;22.61;46.91;101759.75;5027388;28;20048;-78
2021/08/09 08:47:29;;;;;;;7.60;1.55;;;23.00;99.90;;;22.34;48.01;101746.75;5000968;28;20041;-78
2021/08/09 08:50:39;;;;;;;6.20;1.95;;;22.90;99.90;;;22.31;48.48;101756.75;4994842;28;20112;-77
2021/08/09 08:53:35;;;;;;;5.93;1.42;;;22.70;99.90;;;22.40;48.48;101797.25;5008614;28;20047;-77
2021/08/09 08:56:33;;;;;;;6.63;1.05;;;23.20;99.60;;;22.85;46.83;101810.59;4991693;28;20537;-77
2021/08/09 08:59:33;;;;;;;4.95;1.15;;;23.00;99.90;;;22.13;48.30;101744.75;4957400;28;20024;-78
2021/08/09 09:03:08;;;;;;;5.55;1.23;;;22.40;99.90;;;21.44;49.96;101704.59;4982120;28;20082;-76
2021/08/09 09:06:44;;;;;;;8.48;1.05;;;22.10;99.90;;;21.47;50.06;101729.34;4993532;28;20437;-77
2021/08/09 09:09:33;;;;;;;4.35;0.98;;;22.00;99.90;;;21.42;51.14;101718.09;4999427;28;20071;-78
2021/08/09 09:12:14;;;;;;;7.55;1.48;;;21.80;99.90;;;20.94;51.08;101682.50;4969153;28;20044;-77
2021/08/09 09:15:19;;;;;;;5.32;1.55;;;21.50;99.90;;;20.99;51.92;101701.75;4972112;28;20497;-78
2021/08/09 09:18:20;;;;;;;6.18;1.23;;;21.90;99.90;;;21.59;50.94;101751.66;4950900;28;20099;-77
2021/08/09 09:20:49;;;;;;;4.95;1.58;;;22.40;99.90;;;21.96;49.92;101772.06;4977920;28;20219;-77
2021/08/09 09:23:53;;;;;;;7.03;1.27;;;22.40;99.90;;;21.87;50.02;101757.53;4970100;28;20040;-77
2021/08/09 09:26:26;;;;;;;5.82;1.33;;;22.40;99.90;;;21.75;49.93;101750.44;4947754;28;20036;-78
2021/08/09 09:29:09;;;;;;;3.67;1.02;;;22.00;99.90;;;21.40;50.45;101703.09;4975794;28;20087;-78
2021/08/09 09:32:22;;;;;;;6.20;1.30;;;22.00;99.90;;;21.41;50.47;101708.38;4974329;28;20076;-77
2021/08/09 09:34:57;;;;;;;2.92;1.05;;;22.00;99.90;;;21.53;49.73;101727.16;4974184;28;20519;-78
2021/08/09 09:37:37;;;;;;;3.78;1.10;;;22.10;99.90;;;21.80;49.90;101745.59;4939323;28;20048;-77
2021/08/09 09:40:12;;;;;;;12.32;1.33;;;22.50;99.90;;;22.10;48.98;101774.53;5005005;28;20041;-78
2021/08/09 09:42:44;;;;;;;3.67;1.10;;;22.80;99.90;;;22.28;47.59;101766.88;4959466;28;20486;-77
2021/08/09 09:45:58;;;;;;;2.55;0.98;;;22.60;99.90;;;22.06;48.21;101754.28;4940665;28;20332;-78
2021/08/09 09:49:09;;;;;;;5.07;1.10;;;22.70;99.90;;;22.29;47.74;101771.28;4963410;28;20036;-77
2021/08/09 09:52:14;;;;;;;5.53;0.90;;;22.80;99.90;;;22.26;47.31;101756.25;4962650;28;20043;-78
2021/08/09 09:54:42;;;;;;;4.70;1.40;;;23.00;99.90;;;22.71;47.36;101807.19;4972163;28;20039;-78
2021/08/09 10:01:22;;;;;;;6.13;1.10;;;22.80;99.90;;;22.36;47.62;101802.00;5001284;28;20111;-78
2021/08/09 10:04:35;;;;;;;;;;;23.10;99.90;;;22.75;46.78;101804.28;4928071;28;20033;-78
2021/08/09 10:08:02;;;;;;;7.57;1.15;;;23.30;99.60;;;22.52;47.18;101764.88;4975483;28;20451;-78
2021/08/09 10:10:39;;;;;;;5.88;1.50;;;22.80;99.90;;;21.96;48.21;101716.59;4996538;28;20036;-78
2021/08/09 10:13:12;;;;;;;7.28;1.40;;;22.40;99.90;;;21.61;50.39;101688.06;4974477;28;20040;-78
2021/08/09 10:15:42;;;;;;;7.80;1.30;;;22.20;99.90;;;21.57;50.67;101771.50;4957262;28;20051;-78
2021/08/09 10:18:11;;;;;;;14.30;1.77;;;22.10;99.90;;;21.35;50.09;101691.88;4958904;28;20059;-78
2021/08/09 10:20:38;;;;;;;9.50;1.20;;;22.00;99.90;;;21.28;50.23;101680.78;4964278;28;20051;-78
2021/08/09 10:23:07;;;;;;;3.83;1.10;;;21.90;99.90;;;21.30;50.75;101701.13;4947968;28;20414;-77
2021/08/09 10:25:57;;;;;;;3.15;1.20;;;22.00;99.90;;;21.42;50.74;101688.63;4977171;28;20123;-78
2021/08/09 10:28:48;;;;;;;6.25;1.38;;;22.20;99.90;;;21.71;50.27;101706.97;5002309;28;20033;-78
2021/08/09 10:31:24;;;;;;;6.97;1.25;;;22.30;99.90;;;21.69;50.58;101695.50;4985744;28;20032;-78
2021/08/09 10:33:53;;;;;;;4.10;1.08;;;22.20;99.90;;;21.52;49.96;101671.88;4968036;28;20071;-77
2021/08/09 10:36:21;;;;;;;9.05;1.23;;;22.00;99.90;;;21.33;50.37;101667.03;4984961;28;20025;-78